sensor_id;sensor_type;location;lat;lon;timestamp;pressure;altitude;pressure_sealevel;temperature;humidity
10606;BME280;5350;42.698;23.148;2023-02-19T00:00:59;93891.97;;;12.15;40.40
10606;BME280;5350;42.698;23.148;2023-02-19T00:03:28;93922.13;;;12.09;40.93
10606;BME280;5350;42.698;23.148;2023-02-19T00:05:56;93919.97;;;11.97;40.75
10606;BME280;5350;42.698;23.148;2023-02-19T00:08:23;93881.56;;;11.77;41.01
10606;BME280;5350;42.698;23.148;2023-02-19T00:10:52;93883.78;;;11.70;41.57
10606;BME280;5350;42.698;23.148;2023-02-19T00:13:21;93860.13;;;11.65;41.61
10606;BME280;5350;42.698;23.148;2023-02-19T00:15:48;93861.72;;;11.66;41.61
10606;BME280;5350;42.698;23.148;2023-02-19T00:18:15;93867.31;;;11.78;41.31
10606;BME280;5350;42.698;23.148;2023-02-19T00:20:42;93867.88;;;11.75;41.52
10606;BME280;5350;42.698;23.148;2023-02-19T00:23:09;93874.88;;;11.66;42.04
10606;BME280;5350;42.698;23.148;2023-02-19T00:25:37;93860.66;;;11.67;41.75
10606;BME280;5350;42.698;23.148;2023-02-19T00:28:05;93858.66;;;11.59;42.04
10606;BME280;5350;42.698;23.148;2023-02-19T00:30:34;93875.44;;;11.63;42.31
10606;BME280;5350;42.698;23.148;2023-02-19T00:33:00;93879.50;;;11.56;42.21
10606;BME280;5350;42.698;23.148;2023-02-19T00:35:27;93857.66;;;11.55;42.22
10606;BME280;5350;42.698;23.148;2023-02-19T00:37:54;93865.78;;;11.59;42.36
10606;BME280;5350;42.698;23.148;2023-02-19T00:40:21;93888.19;;;11.56;42.07
10606;BME280;5350;42.698;23.148;2023-02-19T00:42:50;93908.41;;;11.61;42.01
10606;BME280;5350;42.698;23.148;2023-02-19T00:45:17;93862.94;;;11.55;42.37
10606;BME280;5350;42.698;23.148;2023-02-19T00:47:47;93839.00;;;11.52;41.71
10606;BME280;5350;42.698;23.148;2023-02-19T00:50:14;93852.28;;;11.47;42.15
10606;BME280;5350;42.698;23.148;2023-02-19T00:52:40;93833.84;;;11.47;41.83
10606;BME280;5350;42.698;23.148;2023-02-19T00:55:07;93848.28;;;11.49;41.95
10606;BME280;5350;42.698;23.148;2023-02-19T00:57:37;93853.56;;;11.49;41.92
10606;BME280;5350;42.698;23.148;2023-02-19T01:00:05;93839.31;;;11.50;42.07
10606;BME280;5350;42.698;23.148;2023-02-19T01:02:32;93853.91;;;11.43;42.34
10606;BME280;5350;42.698;23.148;2023-02-19T01:05:00;93845.25;;;11.23;42.43
10606;BME280;5350;42.698;23.148;2023-02-19T01:07:29;93812.31;;;11.26;42.26
10606;BME280;5350;42.698;23.148;2023-02-19T01:09:55;93809.88;;;11.30;42.35
10606;BME280;5350;42.698;23.148;2023-02-19T01:12:24;93817.59;;;11.26;42.37
10606;BME280;5350;42.698;23.148;2023-02-19T01:14:52;93803.66;;;11.39;41.98
10606;BME280;5350;42.698;23.148;2023-02-19T01:17:19;93832.69;;;11.53;42.11
10606;BME280;5350;42.698;23.148;2023-02-19T01:19:46;93825.75;;;11.24;42.05
10606;BME280;5350;42.698;23.148;2023-02-19T01:22:14;93834.63;;;11.47;42.23
10606;BME280;5350;42.698;23.148;2023-02-19T01:24:41;93818.06;;;11.28;42.35
10606;BME280;5350;42.698;23.148;2023-02-19T01:27:08;93839.31;;;11.50;42.14
10606;BME280;5350;42.698;23.148;2023-02-19T01:29:35;93835.75;;;11.41;42.04
10606;BME280;5350;42.698;23.148;2023-02-19T01:32:02;93850.78;;;11.41;41.80
10606;BME280;5350;42.698;23.148;2023-02-19T01:34:29;93842.41;;;11.39;42.09
10606;BME280;5350;42.698;23.148;2023-02-19T01:36:57;93867.78;;;11.48;42.22
10606;BME280;5350;42.698;23.148;2023-02-19T01:39:26;93885.00;;;11.59;41.82
10606;BME280;5350;42.698;23.148;2023-02-19T01:41:53;93883.41;;;11.58;41.80
10606;BME280;5350;42.698;23.148;2023-02-19T01:47:24;93903.25;;;11.37;42.18
10606;BME280;5350;42.698;23.148;2023-02-19T01:49:53;93885.06;;;11.22;42.40
10606;BME280;5350;42.698;23.148;2023-02-19T01:52:24;93889.19;;;11.09;42.97
10606;BME280;5350;42.698;23.148;2023-02-19T01:54:55;93890.94;;;11.14;43.07
10606;BME280;5350;42.698;23.148;2023-02-19T01:57:26;93904.88;;;10.96;43.42
10606;BME280;5350;42.698;23.148;2023-02-19T01:59:55;93879.25;;;10.64;43.67
10606;BME280;5350;42.698;23.148;2023-02-19T02:02:23;93888.31;;;10.77;44.00
10606;BME280;5350;42.698;23.148;2023-02-19T02:04:54;93879.91;;;10.75;43.85
10606;BME280;5350;42.698;23.148;2023-02-19T02:07:22;93881.91;;;10.83;43.82
10606;BME280;5350;42.698;23.148;2023-02-19T02:10:08;93885.41;;;10.97;43.46
10606;BME280;5350;42.698;23.148;2023-02-19T02:12:57;93879.28;;;11.01;43.25
10606;BME280;5350;42.698;23.148;2023-02-19T02:15:28;93877.63;;;10.87;43.67
10606;BME280;5350;42.698;23.148;2023-02-19T02:18:05;93885.63;;;10.82;44.07
10606;BME280;5350;42.698;23.148;2023-02-19T02:20:49;93869.97;;;10.72;44.14
10606;BME280;5350;42.698;23.148;2023-02-19T02:23:28;93853.50;;;10.19;45.49
10606;BME280;5350;42.698;23.148;2023-02-19T02:26:20;93858.31;;;10.12;45.24
10606;BME280;5350;42.698;23.148;2023-02-19T02:29:07;93886.78;;;10.28;45.33
10606;BME280;5350;42.698;23.148;2023-02-19T02:31:43;93886.72;;;10.33;45.46
10606;BME280;5350;42.698;23.148;2023-02-19T02:34:16;93869.50;;;10.22;45.52
10606;BME280;5350;42.698;23.148;2023-02-19T02:36:47;93865.78;;;10.00;45.85
10606;BME280;5350;42.698;23.148;2023-02-19T02:39:18;93873.91;;;10.03;46.23
10606;BME280;5350;42.698;23.148;2023-02-19T02:41:49;93883.34;;;10.04;46.43
10606;BME280;5350;42.698;23.148;2023-02-19T02:44:39;93888.31;;;10.06;46.77
10606;BME280;5350;42.698;23.148;2023-02-19T02:47:09;93885.50;;;9.97;46.82
10606;BME280;5350;42.698;23.148;2023-02-19T02:49:57;93900.13;;;9.80;47.29
10606;BME280;5350;42.698;23.148;2023-02-19T02:52:31;93837.97;;;9.70;47.34
10606;BME280;5350;42.698;23.148;2023-02-19T02:55:16;93881.16;;;9.88;47.17
10606;BME280;5350;42.698;23.148;2023-02-19T02:57:44;93879.03;;;9.90;47.15
10606;BME280;5350;42.698;23.148;2023-02-19T03:00:12;93886.91;;;9.61;47.57
10606;BME280;5350;42.698;23.148;2023-02-19T03:02:42;93888.84;;;9.79;47.65
10606;BME280;5350;42.698;23.148;2023-02-19T03:05:13;93878.53;;;9.59;47.76
10606;BME280;5350;42.698;23.148;2023-02-19T03:07:59;93877.03;;;9.48;48.18
10606;BME280;5350;42.698;23.148;2023-02-19T03:10:33;93877.66;;;9.68;47.87
10606;BME280;5350;42.698;23.148;2023-02-19T03:13:02;93897.56;;;9.75;47.68
10606;BME280;5350;42.698;23.148;2023-02-19T03:15:53;93875.84;;;9.64;47.88
10606;BME280;5350;42.698;23.148;2023-02-19T03:18:42;93894.25;;;9.93;47.50
10606;BME280;5350;42.698;23.148;2023-02-19T03:21:28;93919.13;;;10.00;47.42
10606;BME280;5350;42.698;23.148;2023-02-19T03:23:55;93907.03;;;9.99;47.35
10606;BME280;5350;42.698;23.148;2023-02-19T03:26:41;93911.06;;;9.63;48.45
10606;BME280;5350;42.698;23.148;2023-02-19T03:29:10;93914.13;;;9.70;48.28
10606;BME280;5350;42.698;23.148;2023-02-19T03:31:54;93922.50;;;9.77;48.33
10606;BME280;5350;42.698;23.148;2023-02-19T03:34:27;93925.44;;;9.71;48.11
10606;BME280;5350;42.698;23.148;2023-02-19T03:37:02;93934.13;;;9.66;48.52
10606;BME280;5350;42.698;23.148;2023-02-19T03:39:29;93935.22;;;9.65;48.62
10606;BME280;5350;42.698;23.148;2023-02-19T03:42:00;93938.50;;;9.47;49.09
10606;BME280;5350;42.698;23.148;2023-02-19T03:44:37;93944.56;;;9.42;49.63
10606;BME280;5350;42.698;23.148;2023-02-19T03:47:12;93942.19;;;9.41;49.59
10606;BME280;5350;42.698;23.148;2023-02-19T03:49:44;93952.41;;;9.47;49.32
10606;BME280;5350;42.698;23.148;2023-02-19T03:52:17;93980.84;;;9.35;49.54
10606;BME280;5350;42.698;23.148;2023-02-19T03:54:51;93957.06;;;9.17;50.06
10606;BME280;5350;42.698;23.148;2023-02-19T03:57:23;93945.41;;;9.33;49.86
10606;BME280;5350;42.698;23.148;2023-02-19T03:59:54;93937.38;;;9.19;50.21
10606;BME280;5350;42.698;23.148;2023-02-19T04:02:27;93945.16;;;8.85;51.16
10606;BME280;5350;42.698;23.148;2023-02-19T04:05:02;93937.13;;;8.62;51.75
10606;BME280;5350;42.698;23.148;2023-02-19T04:07:34;93950.69;;;8.84;51.90
10606;BME280;5350;42.698;23.148;2023-02-19T04:10:04;93938.50;;;8.49;52.05
10606;BME280;5350;42.698;23.148;2023-02-19T04:12:35;93933.75;;;8.56;52.34
10606;BME280;5350;42.698;23.148;2023-02-19T04:15:07;93940.56;;;8.57;52.83
10606;BME280;5350;42.698;23.148;2023-02-19T04:17:40;93934.53;;;8.57;52.68
10606;BME280;5350;42.698;23.148;2023-02-19T04:20:13;93932.16;;;8.65;52.47
10606;BME280;5350;42.698;23.148;2023-02-19T04:22:40;93955.75;;;8.60;52.84
10606;BME280;5350;42.698;23.148;2023-02-19T04:25:08;93959.19;;;8.56;53.61
10606;BME280;5350;42.698;23.148;2023-02-19T04:27:35;93969.94;;;8.59;53.49
10606;BME280;5350;42.698;23.148;2023-02-19T04:30:03;93935.72;;;8.26;53.56
10606;BME280;5350;42.698;23.148;2023-02-19T04:32:30;93954.28;;;8.29;54.06
10606;BME280;5350;42.698;23.148;2023-02-19T04:34:57;93965.81;;;8.33;53.90
10606;BME280;5350;42.698;23.148;2023-02-19T04:37:25;93981.03;;;8.36;54.25
10606;BME280;5350;42.698;23.148;2023-02-19T04:39:52;93968.94;;;8.20;54.71
10606;BME280;5350;42.698;23.148;2023-02-19T04:42:19;93954.28;;;8.19;54.95
10606;BME280;5350;42.698;23.148;2023-02-19T04:44:45;93935.47;;;8.02;55.12
10606;BME280;5350;42.698;23.148;2023-02-19T04:47:12;93983.88;;;8.25;55.07
10606;BME280;5350;42.698;23.148;2023-02-19T04:49:42;93994.66;;;8.08;55.78
10606;BME280;5350;42.698;23.148;2023-02-19T04:52:09;93993.09;;;8.07;55.89
10606;BME280;5350;42.698;23.148;2023-02-19T04:54:37;93984.97;;;8.03;56.40
10606;BME280;5350;42.698;23.148;2023-02-19T04:57:04;93986.81;;;7.93;56.56
10606;BME280;5350;42.698;23.148;2023-02-19T04:59:31;93984.97;;;7.78;56.97
10606;BME280;5350;42.698;23.148;2023-02-19T05:01:58;93992.06;;;7.83;56.74
10606;BME280;5350;42.698;23.148;2023-02-19T05:04:24;93964.28;;;7.72;57.35
10606;BME280;5350;42.698;23.148;2023-02-19T05:06:51;93999.91;;;7.98;57.10
10606;BME280;5350;42.698;23.148;2023-02-19T05:09:18;93983.16;;;7.84;57.29
10606;BME280;5350;42.698;23.148;2023-02-19T05:11:46;93989.16;;;7.74;57.77
10606;BME280;5350;42.698;23.148;2023-02-19T05:14:13;94014.59;;;7.84;58.13
10606;BME280;5350;42.698;23.148;2023-02-19T05:16:41;93986.81;;;7.58;58.69
10606;BME280;5350;42.698;23.148;2023-02-19T05:19:09;94004.34;;;7.52;59.30
10606;BME280;5350;42.698;23.148;2023-02-19T05:21:36;94007.22;;;7.56;59.41
10606;BME280;5350;42.698;23.148;2023-02-19T05:24:04;94017.19;;;7.59;59.50
10606;BME280;5350;42.698;23.148;2023-02-19T05:26:31;93998.84;;;7.54;59.94
10606;BME280;5350;42.698;23.148;2023-02-19T05:28:59;94005.66;;;7.60;60.14
10606;BME280;5350;42.698;23.148;2023-02-19T05:31:26;93985.78;;;7.69;59.61
10606;BME280;5350;42.698;23.148;2023-02-19T05:33:53;93998.59;;;7.70;59.61
10606;BME280;5350;42.698;23.148;2023-02-19T05:36:21;93984.97;;;7.43;59.88
10606;BME280;5350;42.698;23.148;2023-02-19T05:38:51;94010.13;;;7.79;59.52
10606;BME280;5350;42.698;23.148;2023-02-19T05:41:20;94014.34;;;7.90;59.65
10606;BME280;5350;42.698;23.148;2023-02-19T05:43:48;94007.75;;;7.83;60.02
10606;BME280;5350;42.698;23.148;2023-02-19T05:46:17;94026.13;;;7.88;59.80
10606;BME280;5350;42.698;23.148;2023-02-19T05:48:45;93984.72;;;7.65;60.02
10606;BME280;5350;42.698;23.148;2023-02-19T05:51:16;94017.72;;;8.06;59.70
10606;BME280;5350;42.698;23.148;2023-02-19T05:53:44;94036.06;;;7.96;60.31
10606;BME280;5350;42.698;23.148;2023-02-19T05:56:30;94029.50;;;8.19;60.60
10606;BME280;5350;42.698;23.148;2023-02-19T05:58:58;94055.72;;;8.34;60.22
10606;BME280;5350;42.698;23.148;2023-02-19T06:01:28;94031.06;;;8.45;59.88
10606;BME280;5350;42.698;23.148;2023-02-19T06:03:55;94037.84;;;8.56;59.38
10606;BME280;5350;42.698;23.148;2023-02-19T06:06:23;94045.72;;;8.61;59.60
10606;BME280;5350;42.698;23.148;2023-02-19T06:08:50;94022.13;;;8.56;59.24
10606;BME280;5350;42.698;23.148;2023-02-19T06:11:18;94045.69;;;8.71;58.82
10606;BME280;5350;42.698;23.148;2023-02-19T06:13:45;94047.00;;;8.68;58.49
10606;BME280;5350;42.698;23.148;2023-02-19T06:16:12;94050.81;;;9.06;57.86
10606;BME280;5350;42.698;23.148;2023-02-19T06:18:40;94054.41;;;9.20;56.87
10606;BME280;5350;42.698;23.148;2023-02-19T06:21:09;94040.78;;;9.18;56.90
10606;BME280;5350;42.698;23.148;2023-02-19T06:23:37;94045.22;;;9.23;57.01
10606;BME280;5350;42.698;23.148;2023-02-19T06:26:07;94049.38;;;9.34;56.66
10606;BME280;5350;42.698;23.148;2023-02-19T06:28:35;94058.28;;;9.33;56.88
10606;BME280;5350;42.698;23.148;2023-02-19T06:31:03;94022.63;;;9.27;56.14
10606;BME280;5350;42.698;23.148;2023-02-19T06:33:30;94066.88;;;9.48;56.75
10606;BME280;5350;42.698;23.148;2023-02-19T06:36:00;94045.59;;;9.50;55.88
10606;BME280;5350;42.698;23.148;2023-02-19T06:38:27;94033.31;;;9.40;55.34
10606;BME280;5350;42.698;23.148;2023-02-19T06:40:58;94044.66;;;9.75;54.86
10606;BME280;5350;42.698;23.148;2023-02-19T06:43:25;94060.63;;;9.83;55.03
10606;BME280;5350;42.698;23.148;2023-02-19T06:45:52;94055.53;;;9.58;54.66
10606;BME280;5350;42.698;23.148;2023-02-19T06:48:19;94055.41;;;9.78;54.81
10606;BME280;5350;42.698;23.148;2023-02-19T06:50:45;94054.03;;;9.86;54.82
10606;BME280;5350;42.698;23.148;2023-02-19T06:53:13;94061.41;;;9.89;54.56
10606;BME280;5350;42.698;23.148;2023-02-19T06:55:40;94052.66;;;9.93;54.48
10606;BME280;5350;42.698;23.148;2023-02-19T06:58:07;94050.63;;;9.85;54.31
10606;BME280;5350;42.698;23.148;2023-02-19T07:00:35;94074.66;;;10.07;53.95
10606;BME280;5350;42.698;23.148;2023-02-19T07:03:02;94053.63;;;10.07;54.04
10606;BME280;5350;42.698;23.148;2023-02-19T07:05:28;94057.72;;;10.23;53.60
10606;BME280;5350;42.698;23.148;2023-02-19T07:07:55;94058.75;;;10.27;53.59
10606;BME280;5350;42.698;23.148;2023-02-19T07:10:23;94060.25;;;10.38;53.00
10606;BME280;5350;42.698;23.148;2023-02-19T07:12:50;94061.16;;;10.53;52.20
10606;BME280;5350;42.698;23.148;2023-02-19T07:15:17;94051.25;;;10.44;51.80
10606;BME280;5350;42.698;23.148;2023-02-19T07:17:44;94071.78;;;10.95;51.05
10606;BME280;5350;42.698;23.148;2023-02-19T07:20:12;94050.31;;;11.06;51.10
10606;BME280;5350;42.698;23.148;2023-02-19T07:22:39;94022.53;;;11.19;49.26
10606;BME280;5350;42.698;23.148;2023-02-19T07:25:06;94013.44;;;11.30;48.85
10606;BME280;5350;42.698;23.148;2023-02-19T07:27:34;94053.16;;;11.52;48.28
10606;BME280;5350;42.698;23.148;2023-02-19T07:30:02;94024.81;;;11.68;48.12
10606;BME280;5350;42.698;23.148;2023-02-19T07:32:29;94018.53;;;11.82;47.05
10606;BME280;5350;42.698;23.148;2023-02-19T07:34:56;94016.38;;;12.03;47.27
10606;BME280;5350;42.698;23.148;2023-02-19T07:37:23;94028.59;;;12.13;45.84
10606;BME280;5350;42.698;23.148;2023-02-19T07:39:50;94070.38;;;12.38;46.41
10606;BME280;5350;42.698;23.148;2023-02-19T07:42:17;94049.94;;;12.30;45.75
10606;BME280;5350;42.698;23.148;2023-02-19T07:44:45;94046.88;;;12.23;45.97
10606;BME280;5350;42.698;23.148;2023-02-19T07:47:12;94027.31;;;12.42;45.76
10606;BME280;5350;42.698;23.148;2023-02-19T07:49:39;94022.25;;;12.46;45.46
10606;BME280;5350;42.698;23.148;2023-02-19T07:52:05;94040.75;;;12.59;45.36
10606;BME280;5350;42.698;23.148;2023-02-19T07:54:32;94021.69;;;12.62;44.81
10606;BME280;5350;42.698;23.148;2023-02-19T07:56:59;94030.38;;;12.63;44.59
10606;BME280;5350;42.698;23.148;2023-02-19T07:59:26;94050.53;;;12.72;45.53
10606;BME280;5350;42.698;23.148;2023-02-19T08:01:54;94013.38;;;12.69;45.63
10606;BME280;5350;42.698;23.148;2023-02-19T08:04:38;94009.09;;;12.73;45.71
10606;BME280;5350;42.698;23.148;2023-02-19T08:07:05;94012.22;;;12.89;45.87
10606;BME280;5350;42.698;23.148;2023-02-19T08:09:32;94002.84;;;12.82;44.32
10606;BME280;5350;42.698;23.148;2023-02-19T08:11:59;94028.88;;;13.16;44.19
10606;BME280;5350;42.698;23.148;2023-02-19T08:14:43;94014.97;;;12.97;44.36
10606;BME280;5350;42.698;23.148;2023-02-19T08:17:12;94027.59;;;13.27;45.07
10606;BME280;5350;42.698;23.148;2023-02-19T08:19:38;94015.94;;;13.42;43.58
10606;BME280;5350;42.698;23.148;2023-02-19T08:22:05;94036.56;;;13.53;44.07
10606;BME280;5350;42.698;23.148;2023-02-19T08:24:32;94019.63;;;13.54;43.44
10606;BME280;5350;42.698;23.148;2023-02-19T08:26:59;94038.69;;;13.65;44.06
10606;BME280;5350;42.698;23.148;2023-02-19T08:29:26;94019.75;;;13.49;43.93
10606;BME280;5350;42.698;23.148;2023-02-19T08:31:53;94031.84;;;13.64;43.95
10606;BME280;5350;42.698;23.148;2023-02-19T08:34:21;94045.34;;;13.76;43.79
10606;BME280;5350;42.698;23.148;2023-02-19T08:36:48;94031.66;;;13.60;43.88
10606;BME280;5350;42.698;23.148;2023-02-19T08:39:15;94008.25;;;13.54;43.74
10606;BME280;5350;42.698;23.148;2023-02-19T08:41:41;94048.63;;;13.82;43.72
10606;BME280;5350;42.698;23.148;2023-02-19T08:44:08;94027.38;;;13.87;43.73
10606;BME280;5350;42.698;23.148;2023-02-19T08:46:35;94023.28;;;13.81;43.74
10606;BME280;5350;42.698;23.148;2023-02-19T08:49:03;94003.94;;;13.94;44.08
10606;BME280;5350;42.698;23.148;2023-02-19T08:51:31;94004.91;;;13.98;43.15
10606;BME280;5350;42.698;23.148;2023-02-19T08:54:01;94026.56;;;14.22;43.94
10606;BME280;5350;42.698;23.148;2023-02-19T08:56:30;94030.03;;;14.09;43.36
10606;BME280;5350;42.698;23.148;2023-02-19T08:58:57;94036.03;;;14.36;43.04
10606;BME280;5350;42.698;23.148;2023-02-19T09:01:25;94006.22;;;14.31;42.00
10606;BME280;5350;42.698;23.148;2023-02-19T09:03:52;94010.63;;;14.58;42.68
10606;BME280;5350;42.698;23.148;2023-02-19T09:06:19;93959.03;;;14.24;42.72
10606;BME280;5350;42.698;23.148;2023-02-19T09:08:47;93992.72;;;14.63;43.31
10606;BME280;5350;42.698;23.148;2023-02-19T09:11:14;93974.00;;;14.51;43.41
10606;BME280;5350;42.698;23.148;2023-02-19T09:13:41;93989.06;;;14.81;43.47
10606;BME280;5350;42.698;23.148;2023-02-19T09:16:08;93982.22;;;14.80;43.59
10606;BME280;5350;42.698;23.148;2023-02-19T09:18:35;93997.63;;;14.78;43.02
10606;BME280;5350;42.698;23.148;2023-02-19T09:21:03;94010.88;;;14.78;42.45
10606;BME280;5350;42.698;23.148;2023-02-19T09:23:31;93998.50;;;14.65;42.59
10606;BME280;5350;42.698;23.148;2023-02-19T09:26:00;93998.97;;;14.67;43.22
10606;BME280;5350;42.698;23.148;2023-02-19T09:28:32;93994.34;;;14.81;43.34
10606;BME280;5350;42.698;23.148;2023-02-19T09:31:02;94004.00;;;14.77;42.62
10606;BME280;5350;42.698;23.148;2023-02-19T09:33:29;93997.03;;;14.90;42.18
10606;BME280;5350;42.698;23.148;2023-02-19T09:35:57;93976.31;;;14.92;42.20
10606;BME280;5350;42.698;23.148;2023-02-19T09:38:25;93991.50;;;15.08;41.87
10606;BME280;5350;42.698;23.148;2023-02-19T09:40:54;93978.94;;;15.40;40.85
10606;BME280;5350;42.698;23.148;2023-02-19T09:43:25;94004.88;;;15.43;39.93
10606;BME280;5350;42.698;23.148;2023-02-19T09:46:00;93976.13;;;15.28;40.90
10606;BME280;5350;42.698;23.148;2023-02-19T09:48:28;93973.28;;;15.15;39.99
10606;BME280;5350;42.698;23.148;2023-02-19T09:50:56;93974.84;;;15.16;40.48
10606;BME280;5350;42.698;23.148;2023-02-19T09:53:28;93967.69;;;15.26;40.29
10606;BME280;5350;42.698;23.148;2023-02-19T09:56:00;93942.88;;;15.13;40.27
10606;BME280;5350;42.698;23.148;2023-02-19T09:58:32;93943.66;;;15.13;40.19
10606;BME280;5350;42.698;23.148;2023-02-19T10:01:02;93956.25;;;15.56;39.27
10606;BME280;5350;42.698;23.148;2023-02-19T10:03:31;93933.47;;;15.55;39.35
10606;BME280;5350;42.698;23.148;2023-02-19T10:06:01;93921.78;;;15.47;39.50
10606;BME280;5350;42.698;23.148;2023-02-19T10:08:32;93929.09;;;15.67;39.45
10606;BME280;5350;42.698;23.148;2023-02-19T10:10:59;93929.69;;;15.90;39.14
10606;BME280;5350;42.698;23.148;2023-02-19T10:13:30;93930.47;;;15.99;38.34
10606;BME280;5350;42.698;23.148;2023-02-19T10:16:00;93898.84;;;15.77;38.52
10606;BME280;5350;42.698;23.148;2023-02-19T10:18:31;93903.16;;;15.90;38.46
10606;BME280;5350;42.698;23.148;2023-02-19T10:20:59;93906.72;;;16.11;38.46
10606;BME280;5350;42.698;23.148;2023-02-19T10:23:26;93898.13;;;16.14;38.13
10606;BME280;5350;42.698;23.148;2023-02-19T10:25:57;93859.63;;;15.99;38.63
10606;BME280;5350;42.698;23.148;2023-02-19T10:28:27;93881.09;;;16.15;38.14
10606;BME280;5350;42.698;23.148;2023-02-19T10:30:57;93892.22;;;16.63;38.01
10606;BME280;5350;42.698;23.148;2023-02-19T10:33:24;93884.13;;;16.60;37.52
10606;BME280;5350;42.698;23.148;2023-02-19T10:35:54;93874.44;;;16.55;38.16
10606;BME280;5350;42.698;23.148;2023-02-19T10:38:24;93871.50;;;16.77;37.82
10606;BME280;5350;42.698;23.148;2023-02-19T10:40:59;93869.84;;;17.23;36.98
10606;BME280;5350;42.698;23.148;2023-02-19T10:43:29;93857.63;;;17.22;35.47
10606;BME280;5350;42.698;23.148;2023-02-19T10:46:01;93826.75;;;16.88;35.58
10606;BME280;5350;42.698;23.148;2023-02-19T10:48:32;93850.38;;;17.10;35.41
10606;BME280;5350;42.698;23.148;2023-02-19T10:51:01;93836.38;;;17.22;35.76
10606;BME280;5350;42.698;23.148;2023-02-19T10:53:42;93852.59;;;17.29;35.79
10606;BME280;5350;42.698;23.148;2023-02-19T10:56:12;93838.19;;;17.30;35.31
10606;BME280;5350;42.698;23.148;2023-02-19T10:58:40;93832.09;;;17.29;35.00
10606;BME280;5350;42.698;23.148;2023-02-19T11:01:13;93819.59;;;17.50;34.45
10606;BME280;5350;42.698;23.148;2023-02-19T11:03:40;93826.03;;;17.49;34.92
10606;BME280;5350;42.698;23.148;2023-02-19T11:06:09;93814.41;;;17.54;34.56
10606;BME280;5350;42.698;23.148;2023-02-19T11:08:45;93803.50;;;17.80;34.30
10606;BME280;5350;42.698;23.148;2023-02-19T11:11:22;93800.75;;;17.88;33.78
10606;BME280;5350;42.698;23.148;2023-02-19T11:13:50;93794.97;;;17.86;33.34
10606;BME280;5350;42.698;23.148;2023-02-19T11:16:18;93798.69;;;17.94;33.72
10606;BME280;5350;42.698;23.148;2023-02-19T11:18:52;93788.16;;;18.09;33.64
10606;BME280;5350;42.698;23.148;2023-02-19T11:21:25;93768.88;;;18.36;32.73
10606;BME280;5350;42.698;23.148;2023-02-19T11:23:58;93770.19;;;18.06;32.97
10606;BME280;5350;42.698;23.148;2023-02-19T11:26:27;93777.50;;;18.21;32.86
10606;BME280;5350;42.698;23.148;2023-02-19T11:28:57;93781.72;;;18.34;31.81
10606;BME280;5350;42.698;23.148;2023-02-19T11:31:27;93759.88;;;18.29;32.31
10606;BME280;5350;42.698;23.148;2023-02-19T11:33:57;93764.44;;;18.28;32.09
10606;BME280;5350;42.698;23.148;2023-02-19T11:36:27;93751.56;;;18.30;32.12
10606;BME280;5350;42.698;23.148;2023-02-19T11:38:55;93756.44;;;18.28;31.96
10606;BME280;5350;42.698;23.148;2023-02-19T11:41:40;93741.81;;;18.22;31.92
10606;BME280;5350;42.698;23.148;2023-02-19T11:44:21;93742.38;;;18.52;32.03
10606;BME280;5350;42.698;23.148;2023-02-19T11:47:04;93731.44;;;18.81;32.35
10606;BME280;5350;42.698;23.148;2023-02-19T11:49:46;93712.22;;;18.76;31.11
10606;BME280;5350;42.698;23.148;2023-02-19T11:52:27;93724.56;;;18.80;32.65
10606;BME280;5350;42.698;23.148;2023-02-19T11:55:06;93720.19;;;19.00;30.91
10606;BME280;5350;42.698;23.148;2023-02-19T11:57:41;93697.00;;;19.16;30.52
10606;BME280;5350;42.698;23.148;2023-02-19T12:00:19;93683.06;;;19.35;30.70
10606;BME280;5350;42.698;23.148;2023-02-19T12:03:08;93704.03;;;19.36;30.48
10606;BME280;5350;42.698;23.148;2023-02-19T12:05:56;93705.22;;;19.11;30.95
10606;BME280;5350;42.698;23.148;2023-02-19T12:08:52;93712.94;;;19.28;31.12
10606;BME280;5350;42.698;23.148;2023-02-19T12:11:36;93686.53;;;19.66;30.43
10606;BME280;5350;42.698;23.148;2023-02-19T12:14:30;93682.16;;;19.89;30.49
10606;BME280;5350;42.698;23.148;2023-02-19T12:17:08;93684.38;;;20.03;29.61
10606;BME280;5350;42.698;23.148;2023-02-19T12:19:55;93700.50;;;20.38;29.59
10606;BME280;5350;42.698;23.148;2023-02-19T12:22:29;93662.59;;;20.17;29.00
10606;BME280;5350;42.698;23.148;2023-02-19T12:25:21;93667.34;;;20.23;29.13
10606;BME280;5350;42.698;23.148;2023-02-19T12:28:04;93645.63;;;20.25;28.59
10606;BME280;5350;42.698;23.148;2023-02-19T12:33:54;93665.72;;;20.53;28.56
10606;BME280;5350;42.698;23.148;2023-02-19T12:36:34;93686.19;;;20.46;29.01
10606;BME280;5350;42.698;23.148;2023-02-19T12:39:05;93636.22;;;20.31;29.10
10606;BME280;5350;42.698;23.148;2023-02-19T12:41:42;93628.97;;;20.85;28.16
10606;BME280;5350;42.698;23.148;2023-02-19T12:44:14;93630.50;;;20.48;28.39
10606;BME280;5350;42.698;23.148;2023-02-19T12:46:45;93622.19;;;20.53;28.60
10606;BME280;5350;42.698;23.148;2023-02-19T12:49:16;93632.06;;;20.87;28.54
10606;BME280;5350;42.698;23.148;2023-02-19T12:51:47;93584.84;;;20.95;28.19
10606;BME280;5350;42.698;23.148;2023-02-19T12:54:19;93612.78;;;21.16;27.60
10606;BME280;5350;42.698;23.148;2023-02-19T12:56:52;93615.53;;;21.42;28.29
10606;BME280;5350;42.698;23.148;2023-02-19T12:59:23;93599.97;;;21.25;27.67
10606;BME280;5350;42.698;23.148;2023-02-19T13:01:59;93597.09;;;21.60;27.96
10606;BME280;5350;42.698;23.148;2023-02-19T13:04:36;93594.66;;;21.74;26.94
10606;BME280;5350;42.698;23.148;2023-02-19T13:07:12;93593.72;;;21.86;27.15
10606;BME280;5350;42.698;23.148;2023-02-19T13:09:44;93592.75;;;22.23;27.21
10606;BME280;5350;42.698;23.148;2023-02-19T13:12:18;93575.06;;;22.75;26.65
10606;BME280;5350;42.698;23.148;2023-02-19T13:14:48;93578.34;;;22.94;25.92
10606;BME280;5350;42.698;23.148;2023-02-19T13:17:21;93574.41;;;22.25;26.73
10606;BME280;5350;42.698;23.148;2023-02-19T13:19:53;93562.72;;;21.85;26.65
10606;BME280;5350;42.698;23.148;2023-02-19T13:22:28;93567.19;;;21.77;27.73
10606;BME280;5350;42.698;23.148;2023-02-19T13:25:40;93557.56;;;21.99;26.64
10606;BME280;5350;42.698;23.148;2023-02-19T13:28:18;93551.25;;;22.40;27.01